Josephine, Pennsylvania
Current Conditions -  °F | °C
As of 9:15 PM on Saturday 25 Oct 2014 (Local Time) from KIDI Reporting Station
Overcast Overcast  
Wind Chill: 59°   Ceiling: 3400
Heat Index: 59°   Visibility: 10mi
Dew Point: 52°   Wind: 12mph
Humidity: 77%   Direction: 260°W
Pressure: 29.75"   Gusts: 18mph
Location:  40.48°N, 79.18°W
Report Text: KIDI 260115Z AUTO 26010G16KT 10SM BKN034 BKN046 OVC060 15/11 A2975 RMK A01
Loading
Personal Weather Stations






























Interactive Weather Map
Tropical Storm Tracking
New forecast layout! Learn more

10-Day Weather Forecast

Advertisements
Track Severe Weather on mobile